Time;durP1;ratioP1;P1;durP2;ratioP2;P2;SDS_P1;SDS_P2;PMS_P1;PMS_P2;Temp;Humidity;BMP_temperature;BMP_pressure;BME280_temperature;BME280_humidity;BME280_pressure;Samples;Min_cycle;Max_cycle;Signal;HPM_P1;HPM_P2
2023/02/03 06:30:10;;;;;;;;;1.00;1.00;;;;;;;;6287990;22;46944;-60
2023/02/03 06:32:36;;;;;;;;;1.67;1.67;;;;;;;;6399628;22;45222;-61
2023/02/03 06:35:01;;;;;;;;;2.00;2.00;;;;;;;;6370858;22;45385;-62
2023/02/03 06:37:27;;;;;;;;;2.00;1.00;;;;;;;;6372185;22;45665;-63
2023/02/03 06:39:52;;;;;;;;;3.67;2.00;;;;;;;;6401862;22;46202;-62
2023/02/03 06:42:17;;;;;;;;;2.00;2.00;;;;;;;;6402457;22;45282;-62
2023/02/03 06:44:43;;;;;;;;;2.00;2.00;;;;;;;;6403314;22;45374;-63
2023/02/03 06:47:08;;;;;;;;;3.67;2.33;;;;;;;;6402550;22;45233;-61
2023/02/03 06:49:33;;;;;;;;;4.00;2.67;;;;;;;;6403161;22;45385;-62
2023/02/03 06:51:58;;;;;;;;;1.00;1.00;;;;;;;;6402351;22;45680;-62
2023/02/03 06:54:24;;;;;;;;;2.00;2.00;;;;;;;;6403285;22;45692;-62
2023/02/03 06:56:49;;;;;;;;;3.33;1.67;;;;;;;;6402981;22;45347;-62
2023/02/03 06:59:14;;;;;;;;;1.33;1.33;;;;;;;;6402283;22;46215;-61
2023/02/03 07:01:39;;;;;;;;;3.00;2.00;;;;;;;;6402865;22;45366;-62
2023/02/03 07:04:05;;;;;;;;;4.00;2.00;;;;;;;;6402461;22;45267;-61
2023/02/03 07:06:32;;;;;;;;;2.00;2.00;;;;;;;;6402171;22;45269;-61
2023/02/03 07:08:58;;;;;;;;;4.00;3.00;;;;;;;;6401458;22;46175;-61
2023/02/03 07:11:23;;;;;;;;;2.00;2.00;;;;;;;;6402500;22;45600;-62
2023/02/03 07:13:49;;;;;;;;;1.00;1.00;;;;;;;;6402539;22;45321;-62
2023/02/03 07:16:14;;;;;;;;;2.00;2.00;;;;;;;;6402333;22;45231;-62
2023/02/03 07:18:39;;;;;;;;;2.00;2.00;;;;;;;;6400124;22;46132;-62
2023/02/03 07:21:05;;;;;;;;;1.33;1.33;;;;;;;;6403256;22;45170;-63
2023/02/03 07:23:30;;;;;;;;;7.33;6.67;;;;;;;;6404419;22;45416;-62
2023/02/03 07:25:59;;;;;;;;;4.33;3.67;;;;;;;;6404268;22;45092;-62
2023/02/03 07:28:25;;;;;;;;;3.00;3.00;;;;;;;;6404215;22;46076;-62
2023/02/03 07:30:50;;;;;;;;;3.00;3.00;;;;;;;;6404466;22;45271;-62
2023/02/03 07:33:16;;;;;;;;;2.00;2.00;;;;;;;;6375218;22;45274;-62
2023/02/03 07:35:41;;;;;;;;;2.00;2.00;;;;;;;;6404656;22;45269;-62
2023/02/03 07:38:06;;;;;;;;;2.00;2.00;;;;;;;;6403685;22;45263;-62
2023/02/03 07:40:32;;;;;;;;;3.00;3.00;;;;;;;;6402923;22;45234;-61
2023/02/03 07:42:58;;;;;;;;;3.00;2.00;;;;;;;;6404719;22;45153;-62
2023/02/03 07:45:24;;;;;;;;;2.67;2.33;;;;;;;;6405546;22;45160;-62
2023/02/03 07:47:49;;;;;;;;;3.00;2.00;;;;;;;;6403981;22;46867;-62
2023/02/03 07:50:14;;;;;;;;;2.00;2.00;;;;;;;;6405414;22;45225;-62
2023/02/03 07:52:39;;;;;;;;;5.00;2.33;;;;;;;;6405769;22;45564;-61
2023/02/03 07:55:05;;;;;;;;;4.00;2.67;;;;;;;;6404955;22;45274;-62
2023/02/03 07:57:30;;;;;;;;;5.00;3.33;;;;;;;;6404963;22;45217;-61
2023/02/03 07:59:55;;;;;;;;;2.33;2.00;;;;;;;;6404942;22;45320;-61
2023/02/03 08:02:20;;;;;;;;;2.00;2.00;;;;;;;;6405008;22;45362;-61
2023/02/03 08:04:45;;;;;;;;;2.67;2.67;;;;;;;;6404585;22;45204;-61
2023/02/03 08:07:11;;;;;;;;;2.33;2.33;;;;;;;;6404073;22;45277;-61
2023/02/03 08:09:36;;;;;;;;;2.67;2.00;;;;;;;;6403836;22;45620;-61
2023/02/03 08:12:01;;;;;;;;;1.00;1.00;;;;;;;;6403700;22;45504;-61
2023/02/03 08:14:26;;;;;;;;;1.33;1.00;;;;;;;;6376859;22;45223;-61
2023/02/03 08:16:51;;;;;;;;;1.33;1.00;;;;;;;;6404886;22;45181;-61
2023/02/03 08:19:17;;;;;;;;;2.33;2.33;;;;;;;;6404697;22;45432;-61
2023/02/03 08:21:42;;;;;;;;;1.00;1.00;;;;;;;;6405951;22;45190;-61
2023/02/03 08:24:07;;;;;;;;;3.33;2.67;;;;;;;;6405232;22;45225;-61
2023/02/03 08:26:34;;;;;;;;;6.00;2.67;;;;;;;;6404811;22;45443;-61
2023/02/03 08:28:59;;;;;;;;;2.00;1.67;;;;;;;;6404855;22;45257;-61
2023/02/03 08:31:24;;;;;;;;;3.00;3.00;;;;;;;;6403510;22;45248;-61
2023/02/03 08:33:49;;;;;;;;;4.00;4.00;;;;;;;;6376270;22;45465;-61
2023/02/03 08:36:14;;;;;;;;;3.00;3.00;;;;;;;;6404403;22;45339;-61
2023/02/03 08:38:40;;;;;;;;;2.00;2.00;;;;;;;;6403940;22;45340;-61
2023/02/03 08:41:09;;;;;;;;;3.00;1.00;;;;;;;;6401880;22;45271;-63
2023/02/03 08:43:35;;;;;;;;;2.33;2.33;;;;;;;;6401042;22;45235;-63
2023/02/03 08:46:04;;;;;;;;;4.67;4.67;;;;;;;;6403650;22;46950;-63
2023/02/03 08:48:29;;;;;;;;;4.00;4.00;;;;;;;;6403728;22;45242;-63
2023/02/03 08:50:54;;;;;;;;;3.00;3.00;;;;;;;;6403630;22;45451;-61
2023/02/03 08:53:20;;;;;;;;;2.00;2.00;;;;;;;;6402523;22;45311;-61
2023/02/03 08:55:45;;;;;;;;;3.33;2.00;;;;;;;;6403448;22;46122;-61
2023/02/03 08:58:10;;;;;;;;;3.00;3.00;;;;;;;;6403741;22;45278;-61
2023/02/03 09:00:35;;;;;;;;;6.00;3.33;;;;;;;;6401605;22;45380;-61
2023/02/03 09:03:01;;;;;;;;;5.67;3.33;;;;;;;;6402786;22;45521;-62
2023/02/03 09:05:28;;;;;;;;;2.33;2.33;;;;;;;;6403886;22;45792;-61
2023/02/03 09:07:53;;;;;;;;;3.00;3.00;;;;;;;;6403854;22;45179;-62
2023/02/03 09:10:18;;;;;;;;;3.33;3.00;;;;;;;;6402334;22;45257;-61
2023/02/03 09:12:44;;;;;;;;;3.00;3.00;;;;;;;;6403525;22;45878;-62
2023/02/03 09:15:09;;;;;;;;;5.67;4.00;;;;;;;;6403226;22;46883;-62
2023/02/03 09:17:34;;;;;;;;;3.00;3.00;;;;;;;;6403851;22;45596;-62
2023/02/03 09:19:59;;;;;;;;;3.67;3.67;;;;;;;;6402574;22;45682;-62
2023/02/03 09:22:25;;;;;;;;;5.00;3.00;;;;;;;;6403181;22;45221;-62
2023/02/03 09:24:50;;;;;;;;;4.33;3.33;;;;;;;;6403275;22;46099;-62
2023/02/03 09:27:15;;;;;;;;;3.00;2.00;;;;;;;;6403544;22;45297;-62
2023/02/03 09:29:40;;;;;;;;;4.00;4.00;;;;;;;;6403443;22;45237;-62
2023/02/03 09:32:09;;;;;;;;;3.33;3.33;;;;;;;;6402294;22;45315;-62
2023/02/03 09:34:34;;;;;;;;;14.00;10.67;;;;;;;;6403074;22;46169;-62
2023/02/03 09:36:59;;;;;;;;;4.00;4.00;;;;;;;;6402493;22;45321;-62
2023/02/03 09:39:24;;;;;;;;;7.00;4.00;;;;;;;;6404151;22;45213;-62
2023/02/03 09:41:58;;;;;;;;;6.00;4.00;;;;;;;;6404006;22;45570;-62
2023/02/03 09:44:40;;;;;;;;;3.00;3.00;;;;;;;;6403422;22;45336;-62
2023/02/03 09:47:11;;;;;;;;;3.67;3.67;;;;;;;;6402819;22;45323;-62
2023/02/03 09:49:39;;;;;;;;;4.00;4.00;;;;;;;;6405582;22;45357;-62
2023/02/03 09:52:11;;;;;;;;;2.67;2.67;;;;;;;;6405933;22;45429;-62
2023/02/03 09:54:42;;;;;;;;;6.00;3.67;;;;;;;;6404803;22;45224;-62
2023/02/03 09:57:16;;;;;;;;;9.33;5.00;;;;;;;;6401471;22;45332;-62
2023/02/03 09:59:42;;;;;;;;;5.33;4.00;;;;;;;;6402805;22;45599;-62
2023/02/03 10:02:28;;;;;;;;;4.00;4.00;;;;;;;;6403433;22;45312;-62
2023/02/03 10:04:59;;;;;;;;;5.33;4.00;;;;;;;;6401441;22;45977;-62
2023/02/03 10:07:48;;;;;;;;;4.67;4.00;;;;;;;;6374661;22;45199;-62
2023/02/03 10:10:24;;;;;;;;;5.00;4.33;;;;;;;;6385917;22;45260;-62
2023/02/03 10:12:56;;;;;;;;;4.00;3.00;;;;;;;;6403473;22;45371;-62
2023/02/03 10:15:31;;;;;;;;;4.67;4.00;;;;;;;;6403431;22;45429;-62
2023/02/03 10:18:00;;;;;;;;;4.00;4.00;;;;;;;;6402060;22;45261;-62
2023/02/03 10:20:29;;;;;;;;;20.33;19.33;;;;;;;;6403755;22;45230;-62
2023/02/03 10:22:57;;;;;;;;;33.67;29.33;;;;;;;;6402796;22;45462;-62
2023/02/03 10:25:31;;;;;;;;;15.00;10.00;;;;;;;;6401751;22;46483;-62
2023/02/03 10:27:59;;;;;;;;;7.67;5.67;;;;;;;;6402381;22;45298;-62
2023/02/03 10:30:26;;;;;;;;;2.67;2.67;;;;;;;;6403555;22;45541;-62
2023/02/03 10:32:58;;;;;;;;;3.00;3.00;;;;;;;;6403126;22;45264;-62
2023/02/03 10:35:31;;;;;;;;;3.67;3.33;;;;;;;;6402568;22;45306;-62
2023/02/03 10:37:58;;;;;;;;;4.00;3.67;;;;;;;;6374042;22;45563;-62
2023/02/03 10:40:24;;;;;;;;;9.33;5.00;;;;;;;;6402178;22;45446;-62
2023/02/03 10:45:36;;;;;;;;;4.67;4.00;;;;;;;;6403389;22;45410;-62
2023/02/03 10:48:02;;;;;;;;;3.00;3.00;;;;;;;;6402128;22;45298;-62
2023/02/03 10:50:31;;;;;;;;;6.00;4.00;;;;;;;;6403335;22;45219;-62
2023/02/03 10:53:18;;;;;;;;;5.00;3.00;;;;;;;;6402673;22;45523;-63
2023/02/03 10:56:10;;;;;;;;;6.33;5.00;;;;;;;;6404266;22;46145;-63
2023/02/03 10:58:36;;;;;;;;;7.00;5.67;;;;;;;;6370500;22;45450;-61
2023/02/03 11:01:08;;;;;;;;;5.00;4.67;;;;;;;;6403426;22;45382;-62
2023/02/03 11:03:33;;;;;;;;;6.00;5.00;;;;;;;;6404271;22;45286;-60
2023/02/03 11:06:09;;;;;;;;;6.00;4.33;;;;;;;;6403528;22;46134;-63
2023/02/03 11:08:38;;;;;;;;;5.00;5.00;;;;;;;;6402937;22;45277;-62
2023/02/03 11:11:05;;;;;;;;;4.33;4.33;;;;;;;;6403713;22;45273;-67
2023/02/03 11:13:30;;;;;;;;;5.33;5.33;;;;;;;;6403799;22;45588;-61
2023/02/03 11:16:08;;;;;;;;;5.00;5.00;;;;;;;;6402669;22;46309;-62
2023/02/03 11:18:46;;;;;;;;;4.33;4.00;;;;;;;;6403660;22;45197;-62
2023/02/03 11:21:14;;;;;;;;;7.33;5.33;;;;;;;;6404218;22;45298;-62
2023/02/03 11:23:51;;;;;;;;;4.00;4.00;;;;;;;;6404538;22;45194;-62
2023/02/03 11:26:18;;;;;;;;;4.00;3.33;;;;;;;;6404435;22;45310;-62
2023/02/03 11:28:45;;;;;;;;;6.67;5.00;;;;;;;;6404987;22;45623;-61
2023/02/03 11:31:19;;;;;;;;;5.33;5.33;;;;;;;;6347268;22;45801;-62
2023/02/03 11:33:50;;;;;;;;;6.00;6.00;;;;;;;;6401448;22;45285;-62
2023/02/03 11:36:16;;;;;;;;;5.33;5.33;;;;;;;;6402243;22;46274;-61
2023/02/03 11:38:43;;;;;;;;;8.00;5.00;;;;;;;;6403702;22;45426;-61
2023/02/03 11:41:16;;;;;;;;;7.67;7.00;;;;;;;;6374645;22;45615;-60
2023/02/03 11:43:41;;;;;;;;;5.33;5.00;;;;;;;;6403500;22;45272;-60
2023/02/03 11:46:08;;;;;;;;;5.33;4.33;;;;;;;;6402538;22;45948;-60
2023/02/03 11:48:38;;;;;;;;;5.67;3.67;;;;;;;;6403048;22;45276;-61
2023/02/03 11:51:09;;;;;;;;;8.00;4.33;;;;;;;;6401881;22;45516;-61
2023/02/03 11:53:50;;;;;;;;;6.33;5.67;;;;;;;;6403243;22;45510;-61
2023/02/03 11:56:27;;;;;;;;;5.67;5.00;;;;;;;;6402289;22;46081;-61
2023/02/03 11:59:01;;;;;;;;;6.00;6.00;;;;;;;;6401154;22;45211;-61
2023/02/03 12:01:45;;;;;;;;;6.33;6.00;;;;;;;;6373177;22;45404;-61
2023/02/03 12:04:29;;;;;;;;;4.00;4.00;;;;;;;;6403624;22;45272;-61
2023/02/03 12:07:03;;;;;;;;;7.67;6.33;;;;;;;;6403331;22;46083;-61
2023/02/03 12:09:47;;;;;;;;;6.33;4.33;;;;;;;;6372607;22;45291;-61
2023/02/03 12:12:13;;;;;;;;;6.67;6.67;;;;;;;;6403269;22;45266;-61
2023/02/03 12:14:38;;;;;;;;;8.00;6.00;;;;;;;;6404189;22;45370;-61
2023/02/03 12:17:16;;;;;;;;;9.00;6.67;;;;;;;;6403362;22;46065;-61
2023/02/03 12:20:02;;;;;;;;;7.33;7.00;;;;;;;;6404489;22;45315;-61
2023/02/03 12:22:30;;;;;;;;;13.67;8.00;;;;;;;;6404398;22;45358;-62
2023/02/03 12:25:02;;;;;;;;;7.67;6.00;;;;;;;;6403617;22;45261;-61
2023/02/03 12:27:53;;;;;;;;;7.33;7.33;;;;;;;;6403644;22;46240;-60
2023/02/03 12:30:28;;;;;;;;;8.00;6.00;;;;;;;;6352414;22;45523;-62
2023/02/03 12:32:58;;;;;;;;;6.33;5.00;;;;;;;;6403673;22;45307;-64
2023/02/03 12:35:32;;;;;;;;;25.00;21.33;;;;;;;;6404407;22;45387;-68
2023/02/03 12:38:04;;;;;;;;;24.67;21.67;;;;;;;;6402219;22;45517;-67
2023/02/03 12:40:48;;;;;;;;;6.00;4.00;;;;;;;;6404473;22;45289;-67
2023/02/03 12:43:37;;;;;;;;;4.33;4.33;;;;;;;;6403605;22;45331;-67
2023/02/03 12:46:13;;;;;;;;;4.33;4.00;;;;;;;;6374040;22;45321;-67
2023/02/03 12:48:56;;;;;;;;;6.67;5.00;;;;;;;;6402732;22;46109;-67
2023/02/03 12:51:30;;;;;;;;;5.33;4.33;;;;;;;;6403260;22;45208;-67
2023/02/03 12:54:00;;;;;;;;;6.00;5.00;;;;;;;;6403037;22;45431;-67
2023/02/03 12:56:30;;;;;;;;;4.67;4.33;;;;;;;;6404317;22;45534;-67
2023/02/03 12:58:59;;;;;;;;;3.00;3.00;;;;;;;;6402162;22;46798;-67
2023/02/03 13:01:27;;;;;;;;;4.67;4.67;;;;;;;;6402940;22;45159;-67
2023/02/03 13:03:52;;;;;;;;;3.67;2.33;;;;;;;;6403137;22;45309;-67
2023/02/03 13:06:23;;;;;;;;;3.00;1.00;;;;;;;;6403293;22;45488;-67
2023/02/03 13:09:07;;;;;;;;;2.33;2.33;;;;;;;;6404227;22;45192;-67
2023/02/03 13:11:53;;;;;;;;;5.33;5.33;;;;;;;;6403853;22;45217;-67
2023/02/03 13:14:22;;;;;;;;;3.00;3.00;;;;;;;;6403464;22;45233;-67
2023/02/03 13:16:50;;;;;;;;;6.00;4.00;;;;;;;;6403046;22;45347;-68
2023/02/03 13:19:24;;;;;;;;;6.00;4.33;;;;;;;;6405634;22;45280;-68
2023/02/03 13:21:49;;;;;;;;;3.00;3.00;;;;;;;;6405057;22;45256;-67
2023/02/03 13:24:15;;;;;;;;;6.00;3.00;;;;;;;;6402884;22;45324;-68
2023/02/03 13:26:53;;;;;;;;;6.00;4.00;;;;;;;;6404029;22;45298;-68
2023/02/03 13:29:24;;;;;;;;;5.00;5.00;;;;;;;;6403601;22;46235;-68
2023/02/03 13:31:55;;;;;;;;;3.00;3.00;;;;;;;;6403284;22;45285;-67
2023/02/03 13:34:20;;;;;;;;;3.67;2.67;;;;;;;;6403315;22;45473;-67
2023/02/03 13:36:54;;;;;;;;;7.00;7.00;;;;;;;;6403558;22;45175;-67
2023/02/03 13:39:19;;;;;;;;;4.33;4.00;;;;;;;;6402372;22;46075;-66
2023/02/03 13:41:48;;;;;;;;;5.00;4.00;;;;;;;;6403737;22;45227;-67
2023/02/03 13:44:15;;;;;;;;;3.00;2.33;;;;;;;;6401693;22;45383;-72
2023/02/03 13:46:41;;;;;;;;;4.00;4.00;;;;;;;;6396194;22;45570;-68
2023/02/03 13:49:07;;;;;;;;;3.33;3.00;;;;;;;;6399244;22;46076;-68
2023/02/03 13:51:51;;;;;;;;;3.00;3.00;;;;;;;;6402834;22;45592;-68
2023/02/03 13:54:35;;;;;;;;;1.67;1.67;;;;;;;;6403128;22;45343;-68
2023/02/03 13:57:01;;;;;;;;;5.00;3.00;;;;;;;;6401556;22;45477;-68
2023/02/03 13:59:31;;;;;;;;;3.00;2.00;;;;;;;;6403495;22;46180;-68
2023/02/03 14:02:20;;;;;;;;;1.33;1.33;;;;;;;;6401370;22;45507;-67
2023/02/03 14:04:45;;;;;;;;;3.67;3.00;;;;;;;;6384757;22;45349;-68
2023/02/03 14:07:25;;;;;;;;;3.67;3.67;;;;;;;;6402911;22;45419;-68
2023/02/03 14:10:09;;;;;;;;;3.00;3.00;;;;;;;;6402503;22;46139;-68
2023/02/03 14:12:35;;;;;;;;;4.00;3.00;;;;;;;;6402864;22;45586;-67
2023/02/03 14:15:16;;;;;;;;;2.67;2.67;;;;;;;;6403756;22;45145;-68
2023/02/03 14:17:41;;;;;;;;;4.67;4.00;;;;;;;;6403352;22;45496;-67
2023/02/03 14:20:28;;;;;;;;;4.00;4.00;;;;;;;;6402752;22;45307;-68
2023/02/03 14:22:55;;;;;;;;;4.33;4.00;;;;;;;;6402927;22;45313;-67
2023/02/03 14:25:21;;;;;;;;;5.00;4.00;;;;;;;;6402729;22;45141;-67
2023/02/03 14:27:47;;;;;;;;;7.67;6.67;;;;;;;;6403337;22;45256;-67
2023/02/03 14:30:15;;;;;;;;;3.33;3.33;;;;;;;;6401988;22;46053;-66
2023/02/03 14:32:54;;;;;;;;;5.00;3.00;;;;;;;;6401444;22;45387;-67
2023/02/03 14:35:21;;;;;;;;;4.00;4.00;;;;;;;;6403743;22;45242;-68
2023/02/03 14:37:54;;;;;;;;;5.00;5.00;;;;;;;;6403270;22;45231;-67
2023/02/03 14:40:38;;;;;;;;;4.33;4.33;;;;;;;;6402451;22;45242;-67
2023/02/03 14:43:12;;;;;;;;;6.33;5.00;;;;;;;;6402165;22;45328;-67
2023/02/03 14:45:44;;;;;;;;;7.00;4.00;;;;;;;;6403514;22;45292;-66
2023/02/03 14:48:09;;;;;;;;;4.00;3.33;;;;;;;;6373324;22;45551;-66
2023/02/03 14:50:45;;;;;;;;;5.00;4.00;;;;;;;;6401249;22;45154;-67
2023/02/03 14:53:13;;;;;;;;;5.33;5.00;;;;;;;;6402028;22;45312;-67
2023/02/03 14:55:53;;;;;;;;;6.67;5.00;;;;;;;;6403104;22;45183;-67
2023/02/03 14:58:23;;;;;;;;;4.67;4.67;;;;;;;;6403140;22;45331;-66
2023/02/03 15:00:51;;;;;;;;;5.00;5.00;;;;;;;;6401068;22;45213;-67
2023/02/03 15:03:21;;;;;;;;;6.00;5.33;;;;;;;;6401464;22;45309;-67
2023/02/03 15:05:47;;;;;;;;;7.67;5.33;;;;;;;;6402284;22;45372;-67
2023/02/03 15:08:43;;;;;;;;;5.00;4.00;;;;;;;;6403032;22;45298;-67
2023/02/03 15:11:14;;;;;;;;;4.00;4.00;;;;;;;;6374046;22;45565;-67
2023/02/03 15:13:39;;;;;;;;;3.67;3.67;;;;;;;;6402899;22;45312;-67
2023/02/03 15:16:11;;;;;;;;;5.00;5.00;;;;;;;;6402110;22;45307;-67
2023/02/03 15:18:36;;;;;;;;;7.00;6.00;;;;;;;;6402732;22;45264;-69
2023/02/03 15:21:02;;;;;;;;;4.00;4.00;;;;;;;;6402082;22;45364;-68
2023/02/03 15:23:28;;;;;;;;;8.33;4.33;;;;;;;;6402624;22;45365;-67
2023/02/03 15:26:11;;;;;;;;;6.00;6.00;;;;;;;;6402594;22;45690;-68
2023/02/03 15:28:36;;;;;;;;;7.00;6.00;;;;;;;;6402543;22;45135;-67
2023/02/03 15:31:05;;;;;;;;;6.33;6.33;;;;;;;;6399627;22;46250;-68
2023/02/03 15:33:31;;;;;;;;;6.00;6.00;;;;;;;;6402100;22;45702;-69
2023/02/03 15:36:00;;;;;;;;;5.33;5.33;;;;;;;;6402378;22;45339;-69
2023/02/03 15:38:33;;;;;;;;;7.33;5.67;;;;;;;;6402101;22;45297;-67
2023/02/03 15:40:58;;;;;;;;;5.67;5.67;;;;;;;;6402201;22;46144;-68
2023/02/03 15:43:37;;;;;;;;;5.33;5.33;;;;;;;;6403246;22;45195;-67
2023/02/03 15:46:16;;;;;;;;;13.67;8.00;;;;;;;;6394857;22;45708;-68
2023/02/03 15:48:45;;;;;;;;;9.00;8.00;;;;;;;;6371814;22;45380;-68
2023/02/03 15:51:16;;;;;;;;;7.00;7.00;;;;;;;;6402712;22;46066;-68
2023/02/03 15:53:48;;;;;;;;;6.33;6.33;;;;;;;;6401527;22;45400;-68
2023/02/03 15:56:19;;;;;;;;;4.00;4.00;;;;;;;;6402532;22;45240;-67
2023/02/03 15:58:44;;;;;;;;;7.00;6.00;;;;;;;;6373168;22;45655;-67
2023/02/03 16:01:14;;;;;;;;;7.33;6.33;;;;;;;;6401121;22;45233;-68
2023/02/03 16:03:41;;;;;;;;;5.33;4.00;;;;;;;;6402174;22;45238;-68
2023/02/03 16:06:17;;;;;;;;;5.00;5.00;;;;;;;;6402260;22;45352;-68
2023/02/03 16:08:45;;;;;;;;;7.00;5.33;;;;;;;;6402201;22;45302;-67
2023/02/03 16:11:27;;;;;;;;;5.67;5.67;;;;;;;;6401572;22;46514;-67
2023/02/03 16:13:55;;;;;;;;;5.00;5.00;;;;;;;;6371143;22;45628;-67
2023/02/03 16:16:21;;;;;;;;;7.67;6.33;;;;;;;;6401123;22;45279;-68
2023/02/03 16:19:03;;;;;;;;;5.33;5.33;;;;;;;;6401353;22;45277;-68
2023/02/03 16:21:29;;;;;;;;;6.00;4.50;;;;;;;;6402303;22;46278;-68
2023/02/03 16:23:55;;;;;;;;;8.33;6.33;;;;;;;;6401800;22;45308;-67
2023/02/03 16:26:21;;;;;;;;;6.00;6.00;;;;;;;;6404256;22;45239;-68
2023/02/03 16:51:03;;;;;;;;;10.67;10.67;;;;;;;;6402138;22;45407;-70
2023/02/03 16:53:29;;;;;;;;;15.33;12.33;;;;;;;;6401175;22;46314;-70
2023/02/03 16:55:55;;;;;;;;;9.00;9.00;;;;;;;;6402056;22;45212;-70
2023/02/03 16:58:21;;;;;;;;;12.00;9.00;;;;;;;;6401039;22;45331;-69
2023/02/03 17:00:47;;;;;;;;;17.00;13.67;;;;;;;;6401055;22;45316;-69
2023/02/03 17:03:14;;;;;;;;;13.67;13.67;;;;;;;;6402717;22;47095;-70
2023/02/03 17:05:41;;;;;;;;;10.67;10.67;;;;;;;;6402345;22;45341;-69
2023/02/03 17:08:06;;;;;;;;;12.00;11.00;;;;;;;;6403086;22;45343;-69
2023/02/03 17:10:35;;;;;;;;;9.00;9.00;;;;;;;;6401939;22;45402;-69
2023/02/03 17:13:00;;;;;;;;;6.00;6.00;;;;;;;;6402834;22;46318;-70
2023/02/03 17:15:25;;;;;;;;;16.33;16.33;;;;;;;;6402619;22;45334;-70
2023/02/03 17:17:50;;;;;;;;;15.00;12.33;;;;;;;;6401769;22;45282;-70
2023/02/03 17:20:16;;;;;;;;;13.00;11.33;;;;;;;;6402895;22;45436;-70
2023/02/03 17:22:41;;;;;;;;;13.33;11.33;;;;;;;;6402019;22;45328;-70
2023/02/03 17:25:06;;;;;;;;;14.67;13.00;;;;;;;;6402522;22;45383;-70
2023/02/03 17:27:31;;;;;;;;;15.00;14.33;;;;;;;;6403516;22;45455;-70
2023/02/03 17:29:57;;;;;;;;;21.00;15.33;;;;;;;;6402246;22;45272;-70
2023/02/03 17:32:22;;;;;;;;;12.67;12.67;;;;;;;;6402497;22;46342;-70
2023/02/03 17:34:47;;;;;;;;;16.00;14.00;;;;;;;;6402257;22;45410;-70
2023/02/03 17:37:12;;;;;;;;;11.00;11.00;;;;;;;;6402390;22;45331;-73
2023/02/03 17:39:37;;;;;;;;;13.67;12.33;;;;;;;;6402397;22;45331;-73
2023/02/03 17:42:03;;;;;;;;;14.00;13.00;;;;;;;;6401823;22;46329;-73
2023/02/03 17:44:28;;;;;;;;;14.33;13.00;;;;;;;;6402128;22;45250;-73
2023/02/03 17:46:53;;;;;;;;;13.00;12.00;;;;;;;;6402109;22;45247;-73
2023/02/03 17:49:18;;;;;;;;;14.00;11.00;;;;;;;;6402837;22;45596;-73
2023/02/03 17:51:44;;;;;;;;;10.67;9.00;;;;;;;;6373735;22;45595;-73
2023/02/03 17:54:09;;;;;;;;;10.00;10.00;;;;;;;;6403213;22;45374;-73
2023/02/03 17:56:35;;;;;;;;;9.33;8.33;;;;;;;;6402197;22;45341;-73
2023/02/03 17:59:01;;;;;;;;;7.67;7.00;;;;;;;;6400336;22;45722;-73
2023/02/03 18:01:27;;;;;;;;;12.00;11.00;;;;;;;;6401883;22;46625;-73
2023/02/03 18:03:57;;;;;;;;;7.33;7.33;;;;;;;;6401755;22;45388;-73
2023/02/03 18:06:23;;;;;;;;;11.67;10.00;;;;;;;;6402238;22;45368;-73
2023/02/03 18:08:48;;;;;;;;;10.33;9.67;;;;;;;;6402003;22;45394;-73
2023/02/03 18:11:15;;;;;;;;;10.00;9.00;;;;;;;;6402116;22;45198;-73
2023/02/03 18:13:41;;;;;;;;;12.33;11.00;;;;;;;;6373701;22;45604;-73
2023/02/03 18:16:08;;;;;;;;;11.00;10.00;;;;;;;;6400570;22;45337;-73
2023/02/03 18:18:34;;;;;;;;;11.33;9.00;;;;;;;;6402537;22;45363;-73
2023/02/03 18:21:05;;;;;;;;;10.00;10.00;;;;;;;;6401680;22;46196;-74
2023/02/03 18:23:31;;;;;;;;;9.67;9.67;;;;;;;;6402843;22;45646;-73
2023/02/03 18:25:56;;;;;;;;;11.33;10.33;;;;;;;;6373323;22;45489;-73
2023/02/03 18:28:21;;;;;;;;;10.33;10.33;;;;;;;;6402362;22;45284;-72
2023/02/03 18:30:47;;;;;;;;;9.33;9.33;;;;;;;;6400688;22;46052;-73
2023/02/03 18:33:12;;;;;;;;;8.67;8.00;;;;;;;;6401776;22;45379;-73
2023/02/03 18:35:37;;;;;;;;;9.00;9.00;;;;;;;;6402101;22;45230;-72
2023/02/03 18:38:03;;;;;;;;;12.33;10.33;;;;;;;;6402502;22;45230;-71
2023/02/03 18:40:28;;;;;;;;;12.33;9.67;;;;;;;;6402928;22;45337;-72
2023/02/03 18:42:55;;;;;;;;;15.33;12.67;;;;;;;;6401123;22;45290;-70
2023/02/03 18:45:20;;;;;;;;;12.33;10.33;;;;;;;;6400003;22;45355;-68
2023/02/03 18:47:45;;;;;;;;;12.33;11.00;;;;;;;;6401426;22;45229;-71
2023/02/03 18:50:10;;;;;;;;;12.00;12.00;;;;;;;;6402362;22;45260;-71
2023/02/03 18:52:36;;;;;;;;;10.67;10.67;;;;;;;;6401876;22;45385;-70
2023/02/03 18:55:02;;;;;;;;;11.67;11.33;;;;;;;;6400434;22;45296;-71
2023/02/03 18:57:27;;;;;;;;;11.33;11.00;;;;;;;;6401745;22;45239;-71
2023/02/03 18:59:52;;;;;;;;;13.33;12.00;;;;;;;;6400979;22;46823;-71
2023/02/03 19:02:18;;;;;;;;;10.67;10.00;;;;;;;;6402959;22;45278;-71
2023/02/03 19:04:43;;;;;;;;;13.00;12.33;;;;;;;;6373318;22;45525;-70
2023/02/03 19:07:10;;;;;;;;;10.67;9.33;;;;;;;;6402289;22;45363;-70
2023/02/03 19:09:35;;;;;;;;;11.00;11.00;;;;;;;;6400835;22;45981;-70
2023/02/03 19:12:01;;;;;;;;;11.00;10.00;;;;;;;;6400889;22;45643;-70
2023/02/03 19:14:27;;;;;;;;;12.00;11.33;;;;;;;;6371687;22;45370;-70
2023/02/03 19:16:52;;;;;;;;;12.00;10.67;;;;;;;;6401683;22;45405;-70
2023/02/03 19:19:18;;;;;;;;;10.00;10.00;;;;;;;;6403758;22;46069;-70
2023/02/03 19:21:43;;;;;;;;;11.33;11.33;;;;;;;;6403888;22;45320;-70
2023/02/03 19:24:11;;;;;;;;;10.00;10.00;;;;;;;;6404583;22;45260;-70
2023/02/03 19:26:36;;;;;;;;;14.00;11.00;;;;;;;;6405063;22;45257;-70
2023/02/03 19:29:01;;;;;;;;;13.33;11.67;;;;;;;;6403700;22;46252;-70
2023/02/03 19:31:27;;;;;;;;;12.00;11.00;;;;;;;;6402299;22;45261;-74
2023/02/03 19:33:52;;;;;;;;;11.00;11.00;;;;;;;;6405763;22;45554;-73
2023/02/03 19:36:17;;;;;;;;;12.00;11.00;;;;;;;;6405431;22;45269;-72
2023/02/03 19:38:42;;;;;;;;;12.00;10.00;;;;;;;;6403667;22;46160;-72
2023/02/03 19:41:08;;;;;;;;;11.67;11.00;;;;;;;;6404012;22;45660;-74
2023/02/03 19:43:33;;;;;;;;;11.67;11.67;;;;;;;;6403128;22;45562;-71
2023/02/03 19:45:59;;;;;;;;;12.67;12.67;;;;;;;;6400515;22;45285;-73
2023/02/03 19:48:24;;;;;;;;;10.00;9.00;;;;;;;;6401216;22;46474;-73
2023/02/03 19:50:49;;;;;;;;;11.00;7.67;;;;;;;;6403323;22;45335;-73
2023/02/03 19:53:15;;;;;;;;;12.00;11.00;;;;;;;;6399653;22;45825;-73
2023/02/03 19:55:41;;;;;;;;;16.33;15.00;;;;;;;;6402680;22;45438;-70
2023/02/03 19:58:06;;;;;;;;;16.00;15.00;;;;;;;;6404085;22;45316;-71
2023/02/03 20:00:31;;;;;;;;;13.00;11.00;;;;;;;;6404602;22;45335;-70
2023/02/03 20:02:56;;;;;;;;;7.00;7.00;;;;;;;;6403417;22;45222;-71
2023/02/03 20:05:22;;;;;;;;;12.33;12.33;;;;;;;;6400496;22;45593;-71
2023/02/03 20:07:47;;;;;;;;;11.00;10.00;;;;;;;;6399200;22;46667;-71
2023/02/03 20:10:13;;;;;;;;;11.00;11.00;;;;;;;;6403011;22;45343;-71
2023/02/03 20:12:38;;;;;;;;;7.67;7.00;;;;;;;;6402945;22;45199;-71
2023/02/03 20:15:03;;;;;;;;;6.67;6.67;;;;;;;;6401098;22;45175;-71
2023/02/03 20:17:29;;;;;;;;;6.67;6.67;;;;;;;;6401523;22;45950;-71
2023/02/03 20:19:54;;;;;;;;;9.00;7.67;;;;;;;;6403524;22;45365;-71
2023/02/03 20:22:19;;;;;;;;;10.00;8.67;;;;;;;;6404492;22;45210;-71
2023/02/03 20:24:44;;;;;;;;;6.00;6.00;;;;;;;;6404333;22;45244;-70
2023/02/03 20:27:10;;;;;;;;;6.67;6.67;;;;;;;;6402317;22;45406;-71
2023/02/03 20:29:35;;;;;;;;;8.00;6.00;;;;;;;;6402926;22;45333;-70
2023/02/03 20:32:00;;;;;;;;;8.00;6.67;;;;;;;;6397167;22;45789;-70
2023/02/03 20:34:28;;;;;;;;;9.67;8.00;;;;;;;;6399191;22;45453;-70
2023/02/03 20:36:54;;;;;;;;;5.00;4.00;;;;;;;;6400024;22;45352;-70
2023/02/03 20:39:20;;;;;;;;;4.33;4.33;;;;;;;;6402456;22;45281;-71
2023/02/03 20:41:46;;;;;;;;;6.00;6.00;;;;;;;;6402103;22;45351;-72
2023/02/03 20:44:12;;;;;;;;;7.00;5.67;;;;;;;;6403348;22;45309;-70
2023/02/03 20:46:37;;;;;;;;;4.00;4.00;;;;;;;;6403373;22;46243;-71
2023/02/03 20:49:02;;;;;;;;;6.00;5.00;;;;;;;;6403330;22;45304;-72
2023/02/03 20:51:28;;;;;;;;;6.00;6.00;;;;;;;;6404961;22;45337;-71
2023/02/03 20:53:55;;;;;;;;;6.00;5.00;;;;;;;;6403351;22;45381;-71
2023/02/03 20:56:20;;;;;;;;;3.00;3.00;;;;;;;;6403430;22;46193;-71
2023/02/03 20:58:46;;;;;;;;;5.33;5.00;;;;;;;;6401983;22;45271;-71
2023/02/03 21:01:11;;;;;;;;;4.33;4.00;;;;;;;;6403953;22;45414;-71
2023/02/03 21:06:20;;;;;;;;;5.00;5.00;;;;;;;;6403976;22;45261;-72
2023/02/03 21:08:46;;;;;;;;;7.67;7.67;;;;;;;;6404038;22;45225;-71
2023/02/03 21:11:13;;;;;;;;;7.33;7.00;;;;;;;;6404128;22;45224;-73
2023/02/03 21:13:38;;;;;;;;;8.00;8.00;;;;;;;;6401197;22;45264;-71
2023/02/03 21:16:16;;;;;;;;;13.00;10.00;;;;;;;;6399850;22;45978;-71
2023/02/03 21:19:01;;;;;;;;;11.67;10.00;;;;;;;;6401576;22;45317;-71
2023/02/03 21:21:34;;;;;;;;;11.00;11.00;;;;;;;;6398878;22;45257;-71
2023/02/03 21:24:00;;;;;;;;;12.33;11.33;;;;;;;;6402292;22;45316;-71
2023/02/03 21:26:27;;;;;;;;;17.00;16.00;;;;;;;;6403679;22;45501;-71
2023/02/03 21:28:56;;;;;;;;;15.33;14.00;;;;;;;;6403499;22;45346;-71
2023/02/03 21:31:23;;;;;;;;;16.33;15.33;;;;;;;;6401097;22;45427;-70
2023/02/03 21:33:50;;;;;;;;;20.00;17.00;;;;;;;;6397175;22;45305;-71
2023/02/03 21:36:19;;;;;;;;;17.00;14.00;;;;;;;;6400786;22;45430;-71
2023/02/03 21:38:47;;;;;;;;;15.33;15.33;;;;;;;;6399667;22;45348;-71
2023/02/03 21:41:17;;;;;;;;;18.00;14.00;;;;;;;;6402969;22;45445;-70